sensor_id;sensor_type;location;lat;lon;timestamp;P1;durP1;ratioP1;P2;durP2;ratioP2
6533;SDS011;3300;42.698;23.332;2023-08-06T01:27:56;24.02;;;18.38;;
6533;SDS011;3300;42.698;23.332;2023-08-06T01:30:31;1095.20;;;983.30;;
6533;SDS011;3300;42.698;23.332;2023-08-06T01:33:03;1300.05;;;999.90;;
6533;SDS011;3300;42.698;23.332;2023-08-06T01:35:31;963.25;;;873.28;;
6533;SDS011;3300;42.698;23.332;2023-08-06T01:38:00;1187.87;;;999.90;;
6533;SDS011;3300;42.698;23.332;2023-08-06T01:40:28;1143.90;;;999.90;;
6533;SDS011;3300;42.698;23.332;2023-08-06T01:42:55;1211.40;;;999.90;;
6533;SDS011;3300;42.698;23.332;2023-08-06T01:45:22;1231.38;;;999.90;;
6533;SDS011;3300;42.698;23.332;2023-08-06T01:47:49;1246.78;;;999.90;;
6533;SDS011;3300;42.698;23.332;2023-08-06T01:50:15;1260.47;;;999.90;;
6533;SDS011;3300;42.698;23.332;2023-08-06T01:52:42;1252.53;;;999.90;;
6533;SDS011;3300;42.698;23.332;2023-08-06T01:55:10;1257.15;;;999.90;;
6533;SDS011;3300;42.698;23.332;2023-08-06T01:57:37;1260.38;;;999.90;;
6533;SDS011;3300;42.698;23.332;2023-08-06T02:00:04;1254.60;;;999.90;;
6533;SDS011;3300;42.698;23.332;2023-08-06T02:02:31;1257.50;;;999.90;;
6533;SDS011;3300;42.698;23.332;2023-08-06T02:04:59;1264.15;;;999.90;;
6533;SDS011;3300;42.698;23.332;2023-08-06T02:07:25;1244.43;;;999.90;;
6533;SDS011;3300;42.698;23.332;2023-08-06T03:30:35;1194.70;;;999.90;;
6533;SDS011;3300;42.698;23.332;2023-08-06T03:33:02;1227.55;;;999.90;;
6533;SDS011;3300;42.698;23.332;2023-08-06T03:35:28;1200.33;;;999.90;;
6533;SDS011;3300;42.698;23.332;2023-08-06T03:37:56;1194.30;;;999.90;;
6533;SDS011;3300;42.698;23.332;2023-08-06T03:40:23;1231.05;;;999.90;;
6533;SDS011;3300;42.698;23.332;2023-08-06T03:42:50;1253.28;;;999.90;;
6533;SDS011;3300;42.698;23.332;2023-08-06T03:45:17;1217.85;;;999.90;;
6533;SDS011;3300;42.698;23.332;2023-08-06T03:47:43;1231.00;;;999.90;;
6533;SDS011;3300;42.698;23.332;2023-08-06T03:50:10;1262.93;;;999.90;;
6533;SDS011;3300;42.698;23.332;2023-08-06T03:52:37;1284.60;;;999.90;;
6533;SDS011;3300;42.698;23.332;2023-08-06T03:55:05;1277.35;;;999.90;;
6533;SDS011;3300;42.698;23.332;2023-08-06T03:57:32;1279.40;;;999.90;;
6533;SDS011;3300;42.698;23.332;2023-08-06T03:59:58;1284.07;;;999.90;;
6533;SDS011;3300;42.698;23.332;2023-08-06T04:02:25;1289.10;;;999.90;;
6533;SDS011;3300;42.698;23.332;2023-08-06T04:04:52;1274.47;;;999.90;;
6533;SDS011;3300;42.698;23.332;2023-08-06T04:07:19;1223.90;;;999.90;;
6533;SDS011;3300;42.698;23.332;2023-08-06T04:09:52;1226.75;;;999.90;;
6533;SDS011;3300;42.698;23.332;2023-08-06T04:12:22;1240.32;;;999.90;;
6533;SDS011;3300;42.698;23.332;2023-08-06T04:14:49;1226.55;;;999.90;;
6533;SDS011;3300;42.698;23.332;2023-08-06T04:17:16;1218.72;;;999.90;;
6533;SDS011;3300;42.698;23.332;2023-08-06T04:19:45;1236.75;;;999.90;;
6533;SDS011;3300;42.698;23.332;2023-08-06T04:22:12;1235.25;;;999.90;;
6533;SDS011;3300;42.698;23.332;2023-08-06T04:24:39;1258.20;;;999.90;;
6533;SDS011;3300;42.698;23.332;2023-08-06T04:29:34;1207.07;;;999.90;;
6533;SDS011;3300;42.698;23.332;2023-08-06T04:32:01;1216.75;;;999.90;;
6533;SDS011;3300;42.698;23.332;2023-08-06T04:34:27;1228.70;;;999.90;;
6533;SDS011;3300;42.698;23.332;2023-08-06T04:36:54;1216.30;;;999.90;;
6533;SDS011;3300;42.698;23.332;2023-08-06T04:39:21;1222.60;;;999.90;;
6533;SDS011;3300;42.698;23.332;2023-08-06T04:41:48;1225.45;;;999.90;;
6533;SDS011;3300;42.698;23.332;2023-08-06T04:44:14;1217.43;;;999.90;;
6533;SDS011;3300;42.698;23.332;2023-08-06T04:46:42;1212.50;;;999.90;;
6533;SDS011;3300;42.698;23.332;2023-08-06T04:49:09;1223.25;;;999.90;;
6533;SDS011;3300;42.698;23.332;2023-08-06T04:51:36;1225.43;;;999.90;;
6533;SDS011;3300;42.698;23.332;2023-08-06T04:54:03;1220.00;;;999.90;;
6533;SDS011;3300;42.698;23.332;2023-08-06T04:56:30;1217.68;;;999.90;;
6533;SDS011;3300;42.698;23.332;2023-08-06T04:58:57;1208.40;;;999.90;;
6533;SDS011;3300;42.698;23.332;2023-08-06T05:01:24;1206.20;;;999.90;;
6533;SDS011;3300;42.698;23.332;2023-08-06T05:03:53;1202.97;;;999.90;;
6533;SDS011;3300;42.698;23.332;2023-08-06T05:06:19;1179.68;;;999.90;;
6533;SDS011;3300;42.698;23.332;2023-08-06T05:08:46;1179.45;;;999.90;;
6533;SDS011;3300;42.698;23.332;2023-08-06T05:11:13;1184.45;;;999.90;;
6533;SDS011;3300;42.698;23.332;2023-08-06T05:13:39;1169.80;;;999.90;;
6533;SDS011;3300;42.698;23.332;2023-08-06T05:16:06;1163.85;;;999.90;;
6533;SDS011;3300;42.698;23.332;2023-08-06T05:18:33;1178.25;;;999.90;;
6533;SDS011;3300;42.698;23.332;2023-08-06T05:21:01;1177.60;;;999.90;;
6533;SDS011;3300;42.698;23.332;2023-08-06T05:23:27;1146.88;;;999.90;;
6533;SDS011;3300;42.698;23.332;2023-08-06T05:25:54;1172.18;;;999.90;;
6533;SDS011;3300;42.698;23.332;2023-08-06T05:28:21;1165.13;;;999.90;;
6533;SDS011;3300;42.698;23.332;2023-08-06T05:30:47;1160.57;;;999.90;;
6533;SDS011;3300;42.698;23.332;2023-08-06T05:33:14;1156.47;;;999.90;;
6533;SDS011;3300;42.698;23.332;2023-08-06T05:35:41;1150.28;;;999.90;;
6533;SDS011;3300;42.698;23.332;2023-08-06T05:38:09;1156.57;;;999.90;;
6533;SDS011;3300;42.698;23.332;2023-08-06T05:40:36;1137.73;;;999.90;;
6533;SDS011;3300;42.698;23.332;2023-08-06T05:43:02;1140.22;;;999.90;;
6533;SDS011;3300;42.698;23.332;2023-08-06T05:45:29;1134.35;;;999.90;;
6533;SDS011;3300;42.698;23.332;2023-08-06T05:47:56;1132.47;;;999.90;;
6533;SDS011;3300;42.698;23.332;2023-08-06T05:50:23;1100.55;;;995.80;;
6533;SDS011;3300;42.698;23.332;2023-08-06T06:24:38;980.30;;;885.22;;
6533;SDS011;3300;42.698;23.332;2023-08-06T06:27:05;1100.50;;;984.50;;
6533;SDS011;3300;42.698;23.332;2023-08-06T06:29:33;354.43;;;320.03;;
6533;SDS011;3300;42.698;23.332;2023-08-06T06:32:00;1151.23;;;999.90;;
6533;SDS011;3300;42.698;23.332;2023-08-06T06:34:26;1146.17;;;999.90;;
6533;SDS011;3300;42.698;23.332;2023-08-06T06:36:53;1219.75;;;999.90;;
6533;SDS011;3300;42.698;23.332;2023-08-06T06:39:20;1201.17;;;999.90;;
6533;SDS011;3300;42.698;23.332;2023-08-06T06:41:47;1308.75;;;999.90;;
6533;SDS011;3300;42.698;23.332;2023-08-06T06:44:14;744.45;;;671.35;;
6533;SDS011;3300;42.698;23.332;2023-08-06T06:46:42;1242.57;;;999.90;;
6533;SDS011;3300;42.698;23.332;2023-08-06T06:49:09;1007.60;;;908.47;;
6533;SDS011;3300;42.698;23.332;2023-08-06T06:56:28;1098.00;;;993.80;;
6533;SDS011;3300;42.698;23.332;2023-08-06T07:18:29;1140.65;;;999.90;;
6533;SDS011;3300;42.698;23.332;2023-08-06T07:30:44;1125.07;;;999.90;;
6533;SDS011;3300;42.698;23.332;2023-08-06T07:33:11;1153.20;;;999.90;;
6533;SDS011;3300;42.698;23.332;2023-08-06T07:35:38;1175.78;;;999.90;;
6533;SDS011;3300;42.698;23.332;2023-08-06T07:38:06;1197.95;;;999.90;;
6533;SDS011;3300;42.698;23.332;2023-08-06T07:40:35;1219.70;;;999.90;;
6533;SDS011;3300;42.698;23.332;2023-08-06T07:43:01;1228.18;;;999.90;;
6533;SDS011;3300;42.698;23.332;2023-08-06T07:45:32;1226.45;;;999.90;;
6533;SDS011;3300;42.698;23.332;2023-08-06T07:47:59;1225.95;;;999.90;;
6533;SDS011;3300;42.698;23.332;2023-08-06T07:50:25;1235.68;;;999.90;;
6533;SDS011;3300;42.698;23.332;2023-08-06T07:52:52;1236.63;;;999.90;;
6533;SDS011;3300;42.698;23.332;2023-08-06T07:55:20;1232.70;;;999.90;;
6533;SDS011;3300;42.698;23.332;2023-08-06T07:57:47;1243.75;;;999.90;;
6533;SDS011;3300;42.698;23.332;2023-08-06T08:02:40;1094.83;;;990.63;;
6533;SDS011;3300;42.698;23.332;2023-08-06T08:05:07;1148.00;;;999.90;;
6533;SDS011;3300;42.698;23.332;2023-08-06T08:07:34;1143.85;;;999.90;;
6533;SDS011;3300;42.698;23.332;2023-08-06T08:10:01;1149.40;;;999.90;;
6533;SDS011;3300;42.698;23.332;2023-08-06T08:12:29;1157.05;;;999.90;;
6533;SDS011;3300;42.698;23.332;2023-08-06T08:14:56;1162.53;;;999.90;;
6533;SDS011;3300;42.698;23.332;2023-08-06T08:17:23;1149.75;;;999.90;;
6533;SDS011;3300;42.698;23.332;2023-08-06T08:19:49;1136.07;;;999.90;;
6533;SDS011;3300;42.698;23.332;2023-08-06T08:22:16;1148.45;;;999.90;;
6533;SDS011;3300;42.698;23.332;2023-08-06T08:24:43;1153.72;;;999.90;;
6533;SDS011;3300;42.698;23.332;2023-08-06T08:27:09;1151.22;;;999.90;;
6533;SDS011;3300;42.698;23.332;2023-08-06T08:29:37;1153.83;;;999.90;;
6533;SDS011;3300;42.698;23.332;2023-08-06T08:32:04;1156.82;;;999.90;;
6533;SDS011;3300;42.698;23.332;2023-08-06T08:34:31;1147.18;;;999.90;;
6533;SDS011;3300;42.698;23.332;2023-08-06T08:36:58;1140.43;;;999.90;;
6533;SDS011;3300;42.698;23.332;2023-08-06T08:39:24;1148.53;;;999.90;;
6533;SDS011;3300;42.698;23.332;2023-08-06T08:41:51;1154.10;;;999.90;;
6533;SDS011;3300;42.698;23.332;2023-08-06T08:44:18;1150.45;;;999.90;;
6533;SDS011;3300;42.698;23.332;2023-08-06T08:46:47;1154.03;;;999.90;;
6533;SDS011;3300;42.698;23.332;2023-08-06T08:49:14;1151.63;;;999.90;;
6533;SDS011;3300;42.698;23.332;2023-08-06T08:51:41;1159.80;;;999.90;;
6533;SDS011;3300;42.698;23.332;2023-08-06T08:54:11;1151.40;;;999.90;;
6533;SDS011;3300;42.698;23.332;2023-08-06T08:56:41;1151.85;;;999.90;;
6533;SDS011;3300;42.698;23.332;2023-08-06T08:59:09;1143.90;;;999.90;;
6533;SDS011;3300;42.698;23.332;2023-08-06T09:01:36;1138.17;;;999.90;;
6533;SDS011;3300;42.698;23.332;2023-08-06T09:04:06;1149.40;;;999.90;;
6533;SDS011;3300;42.698;23.332;2023-08-06T09:06:35;1135.55;;;999.90;;
6533;SDS011;3300;42.698;23.332;2023-08-06T09:09:05;1145.32;;;999.90;;
6533;SDS011;3300;42.698;23.332;2023-08-06T09:11:35;1144.78;;;999.90;;
6533;SDS011;3300;42.698;23.332;2023-08-06T09:14:06;1150.03;;;999.90;;
6533;SDS011;3300;42.698;23.332;2023-08-06T09:16:34;1142.57;;;999.90;;
6533;SDS011;3300;42.698;23.332;2023-08-06T09:19:07;1149.30;;;999.90;;
6533;SDS011;3300;42.698;23.332;2023-08-06T09:21:36;1150.07;;;999.90;;
6533;SDS011;3300;42.698;23.332;2023-08-06T09:24:06;1141.72;;;999.90;;
6533;SDS011;3300;42.698;23.332;2023-08-06T09:26:34;1138.47;;;999.90;;
6533;SDS011;3300;42.698;23.332;2023-08-06T09:29:00;1149.93;;;999.90;;
6533;SDS011;3300;42.698;23.332;2023-08-06T09:31:32;1153.33;;;999.90;;
6533;SDS011;3300;42.698;23.332;2023-08-06T09:33:59;1148.22;;;999.90;;
6533;SDS011;3300;42.698;23.332;2023-08-06T09:36:27;1146.15;;;999.90;;
6533;SDS011;3300;42.698;23.332;2023-08-06T09:38:54;1146.43;;;999.90;;
6533;SDS011;3300;42.698;23.332;2023-08-06T09:41:26;1147.50;;;999.90;;
6533;SDS011;3300;42.698;23.332;2023-08-06T09:43:53;1149.35;;;999.90;;
6533;SDS011;3300;42.698;23.332;2023-08-06T09:46:20;1150.65;;;999.90;;
6533;SDS011;3300;42.698;23.332;2023-08-06T09:48:47;1156.13;;;999.90;;
6533;SDS011;3300;42.698;23.332;2023-08-06T09:51:15;1159.30;;;999.90;;
6533;SDS011;3300;42.698;23.332;2023-08-06T09:53:44;1150.55;;;999.90;;
6533;SDS011;3300;42.698;23.332;2023-08-06T09:56:13;1159.25;;;999.90;;
6533;SDS011;3300;42.698;23.332;2023-08-06T09:58:41;1160.28;;;999.90;;
6533;SDS011;3300;42.698;23.332;2023-08-06T10:01:08;1163.47;;;999.90;;
6533;SDS011;3300;42.698;23.332;2023-08-06T10:03:37;1158.00;;;999.90;;
6533;SDS011;3300;42.698;23.332;2023-08-06T10:06:05;1151.55;;;999.90;;
6533;SDS011;3300;42.698;23.332;2023-08-06T10:08:34;1161.78;;;999.90;;
6533;SDS011;3300;42.698;23.332;2023-08-06T10:11:02;1160.60;;;999.90;;
6533;SDS011;3300;42.698;23.332;2023-08-06T10:13:30;1167.55;;;999.90;;
6533;SDS011;3300;42.698;23.332;2023-08-06T10:15:59;1157.55;;;999.90;;
6533;SDS011;3300;42.698;23.332;2023-08-06T10:18:26;1165.75;;;999.90;;
6533;SDS011;3300;42.698;23.332;2023-08-06T10:20:55;1163.75;;;999.90;;
6533;SDS011;3300;42.698;23.332;2023-08-06T10:23:21;1162.40;;;999.90;;
6533;SDS011;3300;42.698;23.332;2023-08-06T10:26:01;1163.15;;;999.90;;
6533;SDS011;3300;42.698;23.332;2023-08-06T10:28:33;1160.75;;;999.90;;
6533;SDS011;3300;42.698;23.332;2023-08-06T10:31:01;1159.47;;;999.90;;
6533;SDS011;3300;42.698;23.332;2023-08-06T10:33:40;1160.47;;;999.90;;
6533;SDS011;3300;42.698;23.332;2023-08-06T10:36:08;1168.00;;;999.90;;
6533;SDS011;3300;42.698;23.332;2023-08-06T10:38:36;1175.43;;;999.90;;
6533;SDS011;3300;42.698;23.332;2023-08-06T10:41:16;1163.75;;;999.90;;
6533;SDS011;3300;42.698;23.332;2023-08-06T10:43:47;1169.65;;;999.90;;
6533;SDS011;3300;42.698;23.332;2023-08-06T10:46:21;1162.00;;;999.90;;
6533;SDS011;3300;42.698;23.332;2023-08-06T10:48:50;1166.93;;;999.90;;
6533;SDS011;3300;42.698;23.332;2023-08-06T10:51:17;1176.57;;;999.90;;
6533;SDS011;3300;42.698;23.332;2023-08-06T10:53:44;1163.55;;;999.90;;
6533;SDS011;3300;42.698;23.332;2023-08-06T10:56:13;1163.82;;;999.90;;
6533;SDS011;3300;42.698;23.332;2023-08-06T10:58:42;1161.22;;;999.90;;
6533;SDS011;3300;42.698;23.332;2023-08-06T11:01:09;1164.43;;;999.90;;
6533;SDS011;3300;42.698;23.332;2023-08-06T11:03:36;1161.60;;;999.90;;
6533;SDS011;3300;42.698;23.332;2023-08-06T11:06:06;1162.55;;;999.90;;
6533;SDS011;3300;42.698;23.332;2023-08-06T11:08:34;1187.27;;;999.90;;
6533;SDS011;3300;42.698;23.332;2023-08-06T11:11:08;1177.68;;;999.90;;
6533;SDS011;3300;42.698;23.332;2023-08-06T11:13:36;1172.43;;;999.90;;
6533;SDS011;3300;42.698;23.332;2023-08-06T11:16:05;1165.97;;;999.90;;
6533;SDS011;3300;42.698;23.332;2023-08-06T11:18:32;1167.95;;;999.90;;
6533;SDS011;3300;42.698;23.332;2023-08-06T11:20:58;1170.63;;;999.90;;
6533;SDS011;3300;42.698;23.332;2023-08-06T11:23:26;1168.47;;;999.90;;
6533;SDS011;3300;42.698;23.332;2023-08-06T11:25:53;1166.05;;;999.90;;
6533;SDS011;3300;42.698;23.332;2023-08-06T11:28:20;1169.47;;;999.90;;
6533;SDS011;3300;42.698;23.332;2023-08-06T11:30:47;1162.43;;;999.90;;
6533;SDS011;3300;42.698;23.332;2023-08-06T11:33:19;1181.47;;;999.90;;
6533;SDS011;3300;42.698;23.332;2023-08-06T11:35:47;1175.97;;;999.90;;
6533;SDS011;3300;42.698;23.332;2023-08-06T11:38:16;1167.03;;;999.90;;
6533;SDS011;3300;42.698;23.332;2023-08-06T11:40:43;1169.18;;;999.90;;
6533;SDS011;3300;42.698;23.332;2023-08-06T11:43:10;1166.68;;;999.90;;
6533;SDS011;3300;42.698;23.332;2023-08-06T11:45:38;1175.53;;;999.90;;
6533;SDS011;3300;42.698;23.332;2023-08-06T11:48:04;1166.03;;;999.90;;
6533;SDS011;3300;42.698;23.332;2023-08-06T11:50:35;1176.97;;;999.90;;
6533;SDS011;3300;42.698;23.332;2023-08-06T11:53:03;1172.75;;;999.90;;
6533;SDS011;3300;42.698;23.332;2023-08-06T11:55:30;1174.50;;;999.90;;
6533;SDS011;3300;42.698;23.332;2023-08-06T11:57:58;1169.35;;;999.90;;
6533;SDS011;3300;42.698;23.332;2023-08-06T12:00:25;1170.60;;;999.90;;
6533;SDS011;3300;42.698;23.332;2023-08-06T12:02:52;1168.47;;;999.90;;
6533;SDS011;3300;42.698;23.332;2023-08-06T12:05:20;1177.13;;;999.90;;
6533;SDS011;3300;42.698;23.332;2023-08-06T12:07:50;1162.68;;;999.90;;
6533;SDS011;3300;42.698;23.332;2023-08-06T12:10:18;1154.80;;;999.90;;
6533;SDS011;3300;42.698;23.332;2023-08-06T12:12:46;1163.38;;;999.90;;
6533;SDS011;3300;42.698;23.332;2023-08-06T12:15:13;1162.90;;;999.90;;
6533;SDS011;3300;42.698;23.332;2023-08-06T12:17:40;1163.53;;;999.90;;
6533;SDS011;3300;42.698;23.332;2023-08-06T12:20:07;1171.18;;;999.90;;
6533;SDS011;3300;42.698;23.332;2023-08-06T12:22:35;1178.32;;;999.90;;
6533;SDS011;3300;42.698;23.332;2023-08-06T12:25:05;1169.60;;;999.90;;
6533;SDS011;3300;42.698;23.332;2023-08-06T12:27:34;1170.93;;;999.90;;
6533;SDS011;3300;42.698;23.332;2023-08-06T12:30:01;1166.20;;;999.90;;
6533;SDS011;3300;42.698;23.332;2023-08-06T12:32:28;1175.28;;;999.90;;
6533;SDS011;3300;42.698;23.332;2023-08-06T12:34:55;1176.30;;;999.90;;
6533;SDS011;3300;42.698;23.332;2023-08-06T12:37:23;1165.95;;;999.90;;
6533;SDS011;3300;42.698;23.332;2023-08-06T12:39:50;1166.35;;;999.90;;
6533;SDS011;3300;42.698;23.332;2023-08-06T12:42:18;1170.53;;;999.90;;
6533;SDS011;3300;42.698;23.332;2023-08-06T12:44:45;1170.43;;;999.90;;
6533;SDS011;3300;42.698;23.332;2023-08-06T12:47:12;1174.43;;;999.90;;
6533;SDS011;3300;42.698;23.332;2023-08-06T12:49:38;1165.00;;;999.90;;
6533;SDS011;3300;42.698;23.332;2023-08-06T12:52:05;1173.43;;;999.90;;
6533;SDS011;3300;42.698;23.332;2023-08-06T12:54:34;1167.37;;;999.90;;
6533;SDS011;3300;42.698;23.332;2023-08-06T12:57:02;1174.65;;;999.90;;
6533;SDS011;3300;42.698;23.332;2023-08-06T12:59:31;1171.85;;;999.90;;
6533;SDS011;3300;42.698;23.332;2023-08-06T13:01:58;1163.95;;;999.90;;
6533;SDS011;3300;42.698;23.332;2023-08-06T13:04:25;1169.18;;;999.90;;
6533;SDS011;3300;42.698;23.332;2023-08-06T13:06:52;1164.43;;;999.90;;
6533;SDS011;3300;42.698;23.332;2023-08-06T13:09:19;1173.25;;;999.90;;
6533;SDS011;3300;42.698;23.332;2023-08-06T13:11:46;1164.78;;;999.90;;
6533;SDS011;3300;42.698;23.332;2023-08-06T13:14:15;1165.72;;;999.90;;
6533;SDS011;3300;42.698;23.332;2023-08-06T13:16:43;1165.55;;;999.90;;
6533;SDS011;3300;42.698;23.332;2023-08-06T13:19:10;1166.65;;;999.90;;
6533;SDS011;3300;42.698;23.332;2023-08-06T13:21:58;1163.63;;;999.90;;
6533;SDS011;3300;42.698;23.332;2023-08-06T13:24:25;1163.10;;;999.90;;
6533;SDS011;3300;42.698;23.332;2023-08-06T13:26:53;1158.00;;;999.90;;
6533;SDS011;3300;42.698;23.332;2023-08-06T13:29:20;1158.45;;;999.90;;
6533;SDS011;3300;42.698;23.332;2023-08-06T13:31:48;1184.45;;;999.90;;
6533;SDS011;3300;42.698;23.332;2023-08-06T13:34:15;1160.28;;;999.90;;
6533;SDS011;3300;42.698;23.332;2023-08-06T13:36:42;1156.00;;;999.90;;
6533;SDS011;3300;42.698;23.332;2023-08-06T13:39:09;1186.40;;;999.90;;
6533;SDS011;3300;42.698;23.332;2023-08-06T13:41:35;1158.57;;;999.90;;
6533;SDS011;3300;42.698;23.332;2023-08-06T13:44:03;1155.20;;;999.90;;
6533;SDS011;3300;42.698;23.332;2023-08-06T13:46:30;1157.22;;;999.90;;
6533;SDS011;3300;42.698;23.332;2023-08-06T13:48:58;1150.10;;;999.90;;
6533;SDS011;3300;42.698;23.332;2023-08-06T13:51:25;1151.95;;;999.90;;
6533;SDS011;3300;42.698;23.332;2023-08-06T13:53:52;1149.18;;;999.90;;
6533;SDS011;3300;42.698;23.332;2023-08-06T13:56:19;1152.38;;;999.90;;
6533;SDS011;3300;42.698;23.332;2023-08-06T13:58:46;1149.60;;;999.90;;
6533;SDS011;3300;42.698;23.332;2023-08-06T14:01:12;1150.57;;;999.90;;
6533;SDS011;3300;42.698;23.332;2023-08-06T14:03:39;1146.47;;;999.90;;
6533;SDS011;3300;42.698;23.332;2023-08-06T14:06:07;1149.80;;;999.90;;
6533;SDS011;3300;42.698;23.332;2023-08-06T14:08:34;1150.78;;;999.90;;
6533;SDS011;3300;42.698;23.332;2023-08-06T14:11:00;1151.13;;;999.90;;
6533;SDS011;3300;42.698;23.332;2023-08-06T14:13:27;1153.88;;;999.90;;
6533;SDS011;3300;42.698;23.332;2023-08-06T14:15:54;1149.65;;;999.90;;
6533;SDS011;3300;42.698;23.332;2023-08-06T14:18:21;1154.63;;;999.90;;
6533;SDS011;3300;42.698;23.332;2023-08-06T14:20:47;1152.25;;;999.90;;
6533;SDS011;3300;42.698;23.332;2023-08-06T14:23:15;1151.30;;;999.90;;
6533;SDS011;3300;42.698;23.332;2023-08-06T14:25:42;1149.70;;;999.90;;
6533;SDS011;3300;42.698;23.332;2023-08-06T14:28:09;1148.07;;;999.90;;
6533;SDS011;3300;42.698;23.332;2023-08-06T14:30:35;1142.07;;;999.90;;
6533;SDS011;3300;42.698;23.332;2023-08-06T14:33:02;1152.43;;;999.90;;
6533;SDS011;3300;42.698;23.332;2023-08-06T14:35:29;1144.07;;;999.90;;
6533;SDS011;3300;42.698;23.332;2023-08-06T14:37:56;1150.63;;;999.90;;
6533;SDS011;3300;42.698;23.332;2023-08-06T14:40:24;1144.05;;;999.90;;
6533;SDS011;3300;42.698;23.332;2023-08-06T14:42:53;1145.25;;;999.90;;
6533;SDS011;3300;42.698;23.332;2023-08-06T14:45:20;1148.45;;;999.90;;
6533;SDS011;3300;42.698;23.332;2023-08-06T14:47:46;1144.68;;;999.90;;
6533;SDS011;3300;42.698;23.332;2023-08-06T14:50:13;1138.93;;;999.90;;
6533;SDS011;3300;42.698;23.332;2023-08-06T14:52:40;1146.53;;;999.90;;
6533;SDS011;3300;42.698;23.332;2023-08-06T14:55:07;1146.35;;;999.90;;
6533;SDS011;3300;42.698;23.332;2023-08-06T14:57:35;1142.18;;;999.90;;
6533;SDS011;3300;42.698;23.332;2023-08-06T15:00:02;1139.10;;;999.90;;
6533;SDS011;3300;42.698;23.332;2023-08-06T15:02:30;1139.68;;;999.90;;
6533;SDS011;3300;42.698;23.332;2023-08-06T15:04:57;1138.85;;;999.90;;
6533;SDS011;3300;42.698;23.332;2023-08-06T15:07:23;1144.38;;;999.90;;
6533;SDS011;3300;42.698;23.332;2023-08-06T15:09:50;1139.78;;;999.90;;
6533;SDS011;3300;42.698;23.332;2023-08-06T15:12:18;1140.07;;;999.90;;
6533;SDS011;3300;42.698;23.332;2023-08-06T15:14:46;1142.93;;;999.90;;
6533;SDS011;3300;42.698;23.332;2023-08-06T15:17:13;1141.53;;;999.90;;
6533;SDS011;3300;42.698;23.332;2023-08-06T15:19:40;1146.68;;;999.90;;
6533;SDS011;3300;42.698;23.332;2023-08-06T15:22:06;1144.50;;;999.90;;
6533;SDS011;3300;42.698;23.332;2023-08-06T15:24:37;1135.47;;;999.90;;
6533;SDS011;3300;42.698;23.332;2023-08-06T15:27:06;1138.13;;;999.90;;
6533;SDS011;3300;42.698;23.332;2023-08-06T15:29:33;1175.75;;;999.90;;
6533;SDS011;3300;42.698;23.332;2023-08-06T15:32:02;1168.45;;;999.90;;
6533;SDS011;3300;42.698;23.332;2023-08-06T15:34:29;1163.80;;;999.90;;
6533;SDS011;3300;42.698;23.332;2023-08-06T15:36:55;1173.68;;;999.90;;
6533;SDS011;3300;42.698;23.332;2023-08-06T15:39:22;1140.72;;;999.90;;
6533;SDS011;3300;42.698;23.332;2023-08-06T15:41:49;1137.85;;;999.90;;
6533;SDS011;3300;42.698;23.332;2023-08-06T15:44:15;1140.07;;;999.90;;
6533;SDS011;3300;42.698;23.332;2023-08-06T15:46:42;1140.07;;;999.90;;
6533;SDS011;3300;42.698;23.332;2023-08-06T15:49:10;1141.30;;;999.90;;
6533;SDS011;3300;42.698;23.332;2023-08-06T15:51:37;1136.68;;;999.90;;
6533;SDS011;3300;42.698;23.332;2023-08-06T15:54:03;1141.72;;;999.90;;
6533;SDS011;3300;42.698;23.332;2023-08-06T15:56:30;1138.43;;;999.90;;
6533;SDS011;3300;42.698;23.332;2023-08-06T15:58:57;1137.57;;;999.90;;
6533;SDS011;3300;42.698;23.332;2023-08-06T16:01:23;1135.93;;;999.90;;
6533;SDS011;3300;42.698;23.332;2023-08-06T16:03:50;1134.22;;;999.90;;
6533;SDS011;3300;42.698;23.332;2023-08-06T16:06:18;1134.30;;;999.90;;
6533;SDS011;3300;42.698;23.332;2023-08-06T16:08:45;1138.55;;;999.90;;
6533;SDS011;3300;42.698;23.332;2023-08-06T16:11:11;1136.70;;;999.90;;
6533;SDS011;3300;42.698;23.332;2023-08-06T16:13:38;1138.18;;;999.90;;
6533;SDS011;3300;42.698;23.332;2023-08-06T16:16:05;1131.53;;;999.90;;
6533;SDS011;3300;42.698;23.332;2023-08-06T16:18:31;1127.72;;;999.90;;
6533;SDS011;3300;42.698;23.332;2023-08-06T16:20:58;1136.28;;;999.90;;
6533;SDS011;3300;42.698;23.332;2023-08-06T16:23:26;1134.95;;;999.90;;
6533;SDS011;3300;42.698;23.332;2023-08-06T16:25:53;1136.50;;;999.90;;
6533;SDS011;3300;42.698;23.332;2023-08-06T16:28:20;1132.67;;;999.90;;
6533;SDS011;3300;42.698;23.332;2023-08-06T16:30:46;1120.13;;;999.90;;
6533;SDS011;3300;42.698;23.332;2023-08-06T16:33:13;1134.25;;;999.90;;
6533;SDS011;3300;42.698;23.332;2023-08-06T16:35:40;1122.63;;;999.90;;
6533;SDS011;3300;42.698;23.332;2023-08-06T16:38:06;1125.22;;;999.90;;
6533;SDS011;3300;42.698;23.332;2023-08-06T16:40:35;1122.53;;;999.90;;
6533;SDS011;3300;42.698;23.332;2023-08-06T16:43:01;1127.90;;;999.90;;
6533;SDS011;3300;42.698;23.332;2023-08-06T16:45:29;1120.80;;;999.90;;
6533;SDS011;3300;42.698;23.332;2023-08-06T16:47:56;1160.07;;;999.90;;
6533;SDS011;3300;42.698;23.332;2023-08-06T16:50:22;1167.65;;;999.90;;
6533;SDS011;3300;42.698;23.332;2023-08-06T16:52:49;1166.03;;;999.90;;
6533;SDS011;3300;42.698;23.332;2023-08-06T16:55:16;1160.53;;;999.90;;
6533;SDS011;3300;42.698;23.332;2023-08-06T16:57:45;1168.63;;;999.90;;
6533;SDS011;3300;42.698;23.332;2023-08-06T17:00:12;1160.05;;;999.90;;
6533;SDS011;3300;42.698;23.332;2023-08-06T17:02:39;1159.15;;;999.90;;
6533;SDS011;3300;42.698;23.332;2023-08-06T17:05:05;1165.63;;;999.90;;
6533;SDS011;3300;42.698;23.332;2023-08-06T17:07:32;1157.53;;;999.90;;
6533;SDS011;3300;42.698;23.332;2023-08-06T17:10:00;1159.05;;;999.90;;
6533;SDS011;3300;42.698;23.332;2023-08-06T17:12:28;1156.85;;;999.90;;
6533;SDS011;3300;42.698;23.332;2023-08-06T17:14:56;1160.68;;;999.90;;
6533;SDS011;3300;42.698;23.332;2023-08-06T17:17:24;1160.85;;;999.90;;
6533;SDS011;3300;42.698;23.332;2023-08-06T17:19:51;1164.07;;;999.90;;
6533;SDS011;3300;42.698;23.332;2023-08-06T17:22:18;1163.32;;;999.90;;
6533;SDS011;3300;42.698;23.332;2023-08-06T17:24:45;1163.03;;;999.90;;
6533;SDS011;3300;42.698;23.332;2023-08-06T17:27:11;1146.45;;;999.90;;
6533;SDS011;3300;42.698;23.332;2023-08-06T17:32:06;40.70;;;13.03;;
6533;SDS011;3300;42.698;23.332;2023-08-06T17:39:31;7.80;;;6.50;;
6533;SDS011;3300;42.698;23.332;2023-08-06T17:41:58;7.50;;;6.27;;
6533;SDS011;3300;42.698;23.332;2023-08-06T17:44:28;8.33;;;7.13;;
6533;SDS011;3300;42.698;23.332;2023-08-06T17:46:55;8.00;;;6.50;;
6533;SDS011;3300;42.698;23.332;2023-08-06T17:49:23;7.53;;;6.57;;
6533;SDS011;3300;42.698;23.332;2023-08-06T17:51:50;8.03;;;6.20;;
6533;SDS011;3300;42.698;23.332;2023-08-06T17:54:17;9.07;;;6.47;;
6533;SDS011;3300;42.698;23.332;2023-08-06T17:56:43;7.27;;;6.17;;
6533;SDS011;3300;42.698;23.332;2023-08-06T17:59:10;8.00;;;5.93;;
6533;SDS011;3300;42.698;23.332;2023-08-06T18:01:37;8.37;;;5.77;;
6533;SDS011;3300;42.698;23.332;2023-08-06T18:04:04;6.93;;;5.80;;
6533;SDS011;3300;42.698;23.332;2023-08-06T18:06:32;8.80;;;6.20;;